Time;durP1;ratioP1;P1;durP2;ratioP2;P2;SDS_P1;SDS_P2;PMS_P1;PMS_P2;Temp;Humidity;BMP_temperature;BMP_pressure;BME280_temperature;BME280_humidity;BME280_pressure;Samples;Min_cycle;Max_cycle;Signal;HPM_P1;HPM_P2
2022/08/09 00:02:23;;;;;;;0.20;0.00;;;26.50;99.90;;;;;;26169893;22;20207;-73
2022/08/09 00:12:29;;;;;;;0.20;0.00;;;26.60;99.90;;;;;;26165199;22;20198;-72
2022/08/09 00:22:37;;;;;;;0.20;0.10;;;26.60;99.90;;;;;;26170383;22;20163;-71
2022/08/09 00:32:44;;;;;;;0.20;0.00;;;26.60;99.90;;;;;;26168113;22;20183;-70
2022/08/09 00:42:49;;;;;;;0.20;0.00;;;26.70;99.90;;;;;;26166319;22;20185;-71
2022/08/09 00:53:14;;;;;;;0.20;0.00;;;26.70;99.90;;;;;;26166449;22;20183;-71
2022/08/09 01:03:35;;;;;;;0.20;0.00;;;26.50;99.90;;;;;;26169141;22;20221;-70
2022/08/09 01:13:56;;;;;;;0.20;0.10;;;26.30;99.90;;;;;;26167688;22;20194;-71
2022/08/09 01:24:13;;;;;;;0.20;0.00;;;26.20;99.90;;;;;;26168122;22;20163;-71
2022/08/09 01:34:21;;;;;;;0.20;0.00;;;26.10;99.90;;;;;;26167920;22;20863;-70
2022/08/09 01:44:26;;;;;;;0.20;0.00;;;26.20;99.90;;;;;;26173664;22;20190;-72
2022/08/09 01:54:40;;;;;;;0.20;0.00;;;26.50;99.90;;;;;;26175115;22;20191;-72
2022/08/09 02:04:47;;;;;;;0.20;0.00;;;26.20;99.90;;;;;;26174719;22;20206;-71
2022/08/09 02:14:55;;;;;;;0.20;0.00;;;26.10;99.90;;;;;;26170387;22;20247;-71
2022/08/09 02:25:02;;;;;;;0.20;0.00;;;26.30;99.90;;;;;;26170337;22;20246;-72
2022/08/09 02:35:21;;;;;;;0.20;0.00;;;26.30;99.90;;;;;;26173761;22;20183;-72
2022/08/09 02:45:45;;;;;;;0.20;0.10;;;26.30;99.90;;;;;;26168337;22;20178;-71
2022/08/09 02:55:53;;;;;;;0.20;0.00;;;26.20;99.90;;;;;;26171817;22;20183;-71
2022/08/09 03:06:03;;;;;;;0.20;0.00;;;26.00;99.90;;;;;;26171027;22;20198;-70
2022/08/09 03:16:08;;;;;;;0.20;0.00;;;25.80;99.90;;;;;;26170554;22;20207;-69
2022/08/09 03:26:14;;;;;;;0.20;0.00;;;25.80;99.90;;;;;;26170970;22;20186;-70
2022/08/09 03:36:20;;;;;;;0.20;0.00;;;25.60;99.90;;;;;;26166443;22;20186;-70
2022/08/09 03:46:30;;;;;;;0.20;0.00;;;25.40;99.90;;;;;;26170293;22;20182;-70
2022/08/09 03:56:35;;;;;;;0.20;0.00;;;25.00;99.90;;;;;;26169820;22;20183;-70
2022/08/09 04:06:43;;;;;;;0.20;0.00;;;25.00;99.90;;;;;;26167670;22;20262;-71
2022/08/09 04:16:53;;;;;;;0.20;0.00;;;24.90;99.90;;;;;;26170759;22;20170;-70
2022/08/09 04:27:00;;;;;;;0.20;0.10;;;24.80;99.90;;;;;;26168624;22;20218;-71
2022/08/09 04:37:06;;;;;;;0.20;0.00;;;24.80;99.90;;;;;;26169018;22;20179;-70
2022/08/09 04:47:10;;;;;;;0.20;0.00;;;24.40;99.90;;;;;;26169481;22;20179;-71
2022/08/09 04:57:17;;;;;;;0.20;0.00;;;24.40;99.90;;;;;;26167334;22;20239;-69
2022/08/09 05:07:26;;;;;;;0.20;0.10;;;25.20;99.90;;;;;;26168923;22;20198;-71
2022/08/09 05:17:36;;;;;;;0.20;0.00;;;25.50;99.90;;;;;;26175585;22;20156;-70
2022/08/09 05:27:59;;;;;;;0.20;0.00;;;25.40;99.90;;;;;;26176029;22;20191;-70
2022/08/09 05:38:04;;;;;;;0.20;0.00;;;25.40;99.90;;;;;;26173837;22;20194;-71
2022/08/09 05:48:10;;;;;;;0.20;0.00;;;25.50;99.90;;;;;;26176533;22;20194;-70
2022/08/09 05:58:15;;;;;;;0.20;0.00;;;25.80;99.90;;;;;;26173194;22;20159;-68
2022/08/09 06:08:20;;;;;;;0.20;0.00;;;26.10;99.90;;;;;;26171119;22;20191;-70
2022/08/09 06:18:28;;;;;;;0.20;0.10;;;26.50;99.90;;;;;;26171549;22;20237;-70
2022/08/09 06:28:32;;;;;;;0.20;0.10;;;26.80;99.90;;;;;;26170656;22;20207;-68
2022/08/09 06:38:37;;;;;;;0.20;0.05;;;27.20;99.90;;;;;;26168515;22;20209;-69
2022/08/09 06:48:52;;;;;;;0.20;0.00;;;27.30;99.90;;;;;;26169948;22;20179;-69
2022/08/09 06:59:03;;;;;;;0.20;0.00;;;27.60;99.90;;;;;;26168718;22;20167;-68
2022/08/09 07:09:27;;;;;;;0.20;0.00;;;27.90;99.90;;;;;;26167237;22;20252;-69
2022/08/09 07:19:52;;;;;;;0.20;0.00;;;28.30;99.90;;;;;;26168910;22;20174;-68
2022/08/09 07:29:58;;;;;;;0.20;0.00;;;28.30;99.90;;;;;;26164320;22;20191;-68
2022/08/09 07:40:05;;;;;;;0.20;0.00;;;28.10;99.90;;;;;;26168364;22;20168;-68
2022/08/09 07:50:10;;;;;;;0.20;0.00;;;28.30;99.90;;;;;;26167048;22;20184;-67
2022/08/09 08:00:16;;;;;;;0.20;0.10;;;28.70;99.90;;;;;;26166593;22;20210;-68
2022/08/09 08:10:38;;;;;;;0.20;0.00;;;29.50;99.90;;;;;;26167179;22;20218;-69
2022/08/09 08:21:03;;;;;;;0.20;0.00;;;29.20;99.90;;;;;;26163071;22;20163;-69
2022/08/09 08:31:09;;;;;;;0.20;0.10;;;28.80;99.90;;;;;;26165925;22;20184;-68
2022/08/09 08:41:19;;;;;;;0.20;0.10;;;29.00;99.90;;;;;;26167034;22;20171;-67
2022/08/09 08:51:24;;;;;;;0.20;0.10;;;29.30;99.90;;;;;;26165314;22;20205;-69
2022/08/09 09:01:31;;;;;;;0.20;0.10;;;29.30;99.90;;;;;;26167984;22;20254;-69
2022/08/09 09:11:47;;;;;;;0.20;0.00;;;29.20;99.90;;;;;;26174365;22;20209;-68
2022/08/09 09:22:01;;;;;;;0.20;0.00;;;29.60;99.90;;;;;;26173354;22;20193;-67
2022/08/09 09:32:08;;;;;;;0.20;0.00;;;29.90;99.90;;;;;;26172206;22;20178;-68
2022/08/09 09:42:25;;;;;;;0.20;0.00;;;30.30;99.90;;;;;;26171294;22;20244;-68
2022/08/09 09:52:29;;;;;;;0.65;0.43;;;30.10;99.90;;;;;;26171196;22;20183;-67
2022/08/09 10:02:54;;;;;;;0.20;0.00;;;30.40;99.90;;;;;;26171471;22;20184;-67
2022/08/09 10:12:58;;;;;;;0.20;0.00;;;30.60;99.90;;;;;;26170364;22;20191;-67
2022/08/09 10:23:15;;;;;;;0.20;0.00;;;30.50;99.90;;;;;;26169639;22;20199;-67
2022/08/09 10:33:24;;;;;;;0.20;0.00;;;30.60;99.90;;;;;;26171489;22;20235;-68
2022/08/09 10:43:50;;;;;;;0.20;0.00;;;31.50;99.90;;;;;;26168189;22;20163;-67
2022/08/09 10:54:06;;;;;;;0.20;0.00;;;32.00;99.90;;;;;;26171290;22;20191;-68
2022/08/09 11:04:26;;;;;;;0.20;0.00;;;32.10;99.90;;;;;;26170422;22;20206;-69
2022/08/09 11:14:36;;;;;;;0.20;0.00;;;32.50;99.90;;;;;;26169202;22;20262;-68
2022/08/09 11:25:07;;;;;;;0.20;0.00;;;32.10;99.90;;;;;;26168705;22;20155;-69
2022/08/09 11:35:18;;;;;;;0.20;0.00;;;33.60;99.90;;;;;;26163735;22;20195;-67
2022/08/09 11:45:41;;;;;;;0.20;0.00;;;33.10;99.90;;;;;;26168967;22;20168;-70
2022/08/09 11:55:46;;;;;;;0.20;0.00;;;33.50;99.90;;;;;;26163044;22;20247;-70
2022/08/09 12:06:14;;;;;;;0.20;0.00;;;34.20;99.90;;;;;;26165584;22;20218;-68
2022/08/09 12:16:20;;;;;;;0.20;0.00;;;34.70;99.90;;;;;;26163925;22;20278;-68
2022/08/09 12:26:42;;;;;;;0.20;0.00;;;35.00;99.90;;;;;;26165171;22;20163;-69
2022/08/09 12:36:58;;;;;;;0.20;0.00;;;35.70;99.90;;;;;;26163372;22;20194;-69
2022/08/09 12:47:24;;;;;;;0.20;0.00;;;34.90;99.90;;;;;;26162346;22;20186;-68
2022/08/09 12:57:38;;;;;;;0.55;0.55;;;36.10;99.90;;;;;;26163911;22;20250;-69
2022/08/09 13:07:44;;;;;;;0.20;0.00;;;35.60;99.90;;;;;;26139962;22;20297;-69
2022/08/09 13:18:02;;;;;;;0.20;0.00;;;36.50;99.90;;;;;;26165702;22;20209;-69
2022/08/09 13:28:15;;;;;;;0.20;0.00;;;35.80;99.90;;;;;;26164416;22;20160;-70
2022/08/09 13:38:37;;;;;;;0.20;0.00;;;35.60;99.90;;;;;;26172418;22;20151;-70
2022/08/09 13:49:02;;;;;;;0.20;0.00;;;35.80;99.90;;;;;;26173369;22;20190;-69
2022/08/09 13:59:07;;;;;;;0.20;0.00;;;35.10;99.90;;;;;;26173089;22;20171;-68
2022/08/09 14:09:12;;;;;;;0.20;0.00;;;35.00;99.90;;;;;;26172734;22;20258;-70
2022/08/09 14:19:17;;;;;;;0.20;0.00;;;35.40;99.90;;;;;;26173394;22;20164;-69
2022/08/09 14:29:24;;;;;;;0.20;0.00;;;35.70;99.90;;;;;;26169793;22;20186;-69
2022/08/09 14:39:48;;;;;;;0.20;0.00;;;36.00;99.90;;;;;;26165881;22;20167;-70
2022/08/09 14:49:53;;;;;;;0.20;0.00;;;36.90;99.90;;;;;;26168390;22;20193;-69
2022/08/09 15:00:05;;;;;;;0.20;0.00;;;37.10;99.90;;;;;;26168023;22;20165;-69
2022/08/09 15:10:11;;;;;;;0.20;0.00;;;35.90;99.90;;;;;;26162447;22;20276;-70
2022/08/09 15:20:18;;;;;;;0.20;0.00;;;35.90;99.90;;;;;;26169390;22;20167;-69
2022/08/09 15:30:43;;;;;;;0.20;0.00;;;35.70;99.90;;;;;;26168270;22;20206;-69
2022/08/09 15:41:04;;;;;;;0.20;0.00;;;35.40;99.90;;;;;;26167227;22;20155;-70
2022/08/09 15:51:13;;;;;;;0.20;0.00;;;33.70;99.90;;;;;;26165721;22;20282;-69
2022/08/09 16:01:37;;;;;;;0.20;0.00;;;32.90;99.90;;;;;;26164815;22;20159;-70
2022/08/09 16:11:43;;;;;;;0.20;0.00;;;32.30;99.90;;;;;;26165117;22;20200;-69
2022/08/09 16:21:54;;;;;;;0.20;0.00;;;32.00;99.90;;;;;;26162789;22;20159;-69
2022/08/09 16:32:00;;;;;;;0.20;0.00;;;31.50;99.90;;;;;;26164229;22;20219;-68
2022/08/09 16:42:24;;;;;;;0.20;0.00;;;31.50;99.90;;;;;;26163964;22;20220;-68
2022/08/09 16:52:30;;;;;;;0.20;0.00;;;31.40;99.90;;;;;;26162846;22;20184;-68
2022/08/09 17:02:37;;;;;;;0.20;0.00;;;31.20;99.90;;;;;;26163753;22;20198;-68
2022/08/09 17:12:46;;;;;;;0.20;0.00;;;31.30;99.90;;;;;;26170381;22;20187;-69
2022/08/09 17:22:51;;;;;;;0.20;0.00;;;31.10;99.90;;;;;;26175592;22;20152;-69
2022/08/09 17:32:58;;;;;;;0.20;0.00;;;30.60;99.90;;;;;;26173309;22;20193;-69
2022/08/09 17:43:07;;;;;;;0.20;0.00;;;30.20;99.90;;;;;;26174511;22;20214;-67
2022/08/09 17:53:32;;;;;;;0.20;0.00;;;30.10;99.90;;;;;;26171336;22;20213;-68
2022/08/09 18:03:46;;;;;;;0.20;0.00;;;30.20;99.90;;;;;;26173230;22;20195;-69
2022/08/09 18:13:52;;;;;;;0.20;0.10;;;30.10;99.90;;;;;;26172419;22;20200;-68
2022/08/09 18:24:06;;;;;;;0.20;0.00;;;30.10;99.90;;;;;;26172329;22;20163;-69
2022/08/09 18:34:16;;;;;;;0.20;0.00;;;29.90;99.90;;;;;;26172654;22;20561;-68
2022/08/09 18:44:26;;;;;;;0.20;0.00;;;29.60;99.90;;;;;;26173193;22;20258;-68
2022/08/09 18:54:31;;;;;;;0.20;0.00;;;29.30;99.90;;;;;;26171313;22;20203;-69
2022/08/09 19:04:35;;;;;;;0.20;0.00;;;29.00;99.90;;;;;;26167988;22;20242;-69
2022/08/09 19:14:40;;;;;;;0.20;0.10;;;28.70;99.90;;;;;;26171722;22;20609;-69
2022/08/09 19:24:46;;;;;;;0.20;0.10;;;28.70;99.90;;;;;;26170344;22;20193;-68
2022/08/09 19:35:11;;;;;;;0.20;0.00;;;28.70;99.90;;;;;;26168962;22;20261;-68
2022/08/09 19:45:16;;;;;;;0.20;0.00;;;28.70;99.90;;;;;;26171099;22;20205;-69
2022/08/09 19:55:24;;;;;;;0.20;0.00;;;28.70;99.90;;;;;;26167082;22;20187;-69
2022/08/09 20:05:48;;;;;;;0.20;0.03;;;28.50;99.90;;;;;;26167356;22;20210;-70
2022/08/09 20:15:54;;;;;;;0.20;0.10;;;28.60;99.90;;;;;;26170814;22;20824;-69
2022/08/09 20:26:18;;;;;;;0.20;0.00;;;28.50;99.90;;;;;;26168902;22;20171;-70
2022/08/09 20:36:24;;;;;;;0.20;0.00;;;28.40;99.90;;;;;;26168002;22;20201;-69
2022/08/09 20:46:29;;;;;;;0.20;0.00;;;28.30;99.90;;;;;;26163856;22;20183;-69
2022/08/09 20:56:46;;;;;;;0.20;0.00;;;28.40;99.90;;;;;;26170380;22;20266;-70
2022/08/09 21:06:55;;;;;;;0.20;0.00;;;28.40;99.90;;;;;;26169730;22;20190;-70
2022/08/09 21:17:00;;;;;;;0.20;0.00;;;28.30;99.90;;;;;;26167834;22;20246;-68
2022/08/09 21:27:31;;;;;;;0.20;0.00;;;28.30;99.90;;;;;;26166238;22;20167;-69
2022/08/09 21:37:56;;;;;;;0.20;0.00;;;28.10;99.90;;;;;;26167134;22;20202;-70
2022/08/09 21:48:03;;;;;;;0.20;0.00;;;27.80;99.90;;;;;;26167960;22;20163;-69
2022/08/09 21:58:10;;;;;;;0.20;0.00;;;27.70;99.90;;;;;;26172077;22;20191;-70
2022/08/09 22:08:15;;;;;;;0.20;0.00;;;27.60;99.90;;;;;;26176638;22;20195;-69
2022/08/09 22:18:20;;;;;;;0.20;0.00;;;27.50;99.90;;;;;;26176064;22;20243;-69
2022/08/09 22:28:33;;;;;;;0.20;0.00;;;27.70;99.90;;;;;;26175191;22;20167;-70
2022/08/09 22:38:40;;;;;;;0.20;0.00;;;27.50;99.90;;;;;;26173493;22;20231;-70
2022/08/09 22:48:46;;;;;;;0.20;0.00;;;27.60;99.90;;;;;;26171913;22;20187;-69
2022/08/09 22:58:55;;;;;;;0.20;0.00;;;27.60;99.90;;;;;;26176042;22;20184;-68
2022/08/09 23:08:59;;;;;;;0.20;0.00;;;27.70;99.90;;;;;;26170835;22;20191;-69
2022/08/09 23:19:05;;;;;;;0.20;0.00;;;27.50;99.90;;;;;;26174748;22;20179;-68
2022/08/09 23:29:12;;;;;;;0.20;0.00;;;27.50;99.90;;;;;;26173469;22;20190;-68
2022/08/09 23:39:17;;;;;;;0.20;0.00;;;27.30;99.90;;;;;;26173274;22;20187;-69
2022/08/09 23:49:21;;;;;;;0.20;0.00;;;27.30;99.90;;;;;;26174443;22;20262;-70
